Time;durP1;ratioP1;P1;durP2;ratioP2;P2;SDS_P1;SDS_P2;PMS_P1;PMS_P2;Temp;Humidity;BMP_temperature;BMP_pressure;BME280_temperature;BME280_humidity;BME280_pressure;Samples;Min_cycle;Max_cycle;Signal;HPM_P1;HPM_P2
2023/07/11 00:01:43;;;;;;;3.55;2.25;;;22.90;99.90;;;;;;5032699;28;20079;-37
2023/07/11 00:04:08;;;;;;;3.72;2.72;;;22.90;99.90;;;;;;5032586;28;20033;-41
2023/07/11 00:06:34;;;;;;;2.78;2.45;;;22.90;99.90;;;;;;5032622;28;20034;-40
2023/07/11 00:09:00;;;;;;;3.30;2.60;;;22.90;99.90;;;;;;5032779;28;20492;-41
2023/07/11 00:11:25;;;;;;;3.35;2.55;;;22.90;99.90;;;;;;5032661;28;20029;-40
2023/07/11 00:13:51;;;;;;;3.30;2.50;;;22.90;99.90;;;;;;5031964;28;20060;-40
2023/07/11 00:16:18;;;;;;;3.05;2.38;;;22.90;99.90;;;;;;5032148;28;20024;-41
2023/07/11 00:18:45;;;;;;;3.72;2.40;;;22.90;99.90;;;;;;5014676;28;20465;-40
2023/07/11 00:21:11;;;;;;;3.90;2.47;;;22.90;99.90;;;;;;5032076;28;20095;-41
2023/07/11 00:23:37;;;;;;;3.45;2.45;;;22.90;99.90;;;;;;5032164;28;20409;-42
2023/07/11 00:26:03;;;;;;;4.35;2.50;;;22.90;99.90;;;;;;5032190;28;20067;-39
2023/07/11 00:28:28;;;;;;;4.07;2.78;;;22.90;99.90;;;;;;5032414;28;20109;-41
2023/07/11 00:30:54;;;;;;;3.88;2.70;;;22.90;99.90;;;;;;5031902;28;20483;-39
2023/07/11 00:33:20;;;;;;;3.33;2.55;;;22.90;99.90;;;;;;5031962;28;20029;-39
2023/07/11 00:35:49;;;;;;;4.57;3.05;;;22.90;99.90;;;;;;5031883;28;20018;-39
2023/07/11 00:38:14;;;;;;;4.20;2.72;;;22.80;99.90;;;;;;5032295;28;20088;-40
2023/07/11 00:40:46;;;;;;;5.68;2.70;;;22.90;99.90;;;;;;5031736;28;20473;-40
2023/07/11 00:43:14;;;;;;;5.28;2.28;;;22.80;99.90;;;;;;5031926;28;20025;-40
2023/07/11 00:46:02;;;;;;;3.60;2.33;;;22.90;99.90;;;;;;5031750;28;20026;-37
2023/07/11 00:48:30;;;;;;;3.42;2.70;;;22.90;99.90;;;;;;5031684;28;20108;-40
2023/07/11 00:50:56;;;;;;;4.32;2.80;;;22.90;99.90;;;;;;5031597;28;20104;-39
2023/07/11 00:53:24;;;;;;;4.22;2.83;;;22.90;99.90;;;;;;5031714;28;20385;-38
2023/07/11 00:55:50;;;;;;;4.32;2.53;;;22.90;99.90;;;;;;5031987;28;20021;-39
2023/07/11 00:58:19;;;;;;;3.53;2.42;;;22.80;99.90;;;;;;5031637;28;20032;-40
2023/07/11 01:00:45;;;;;;;2.95;2.40;;;22.90;99.90;;;;;;5031337;28;20463;-41
2023/07/11 01:03:10;;;;;;;4.47;3.00;;;22.90;99.90;;;;;;5031469;28;20025;-38
2023/07/11 01:05:38;;;;;;;5.65;2.80;;;22.80;99.90;;;;;;5031407;28;20022;-41
2023/07/11 01:08:04;;;;;;;2.50;2.10;;;22.80;99.90;;;;;;5031507;28;20049;-40
2023/07/11 01:10:30;;;;;;;3.25;2.80;;;22.80;99.90;;;;;;5031532;28;20064;-40
2023/07/11 01:13:01;;;;;;;2.85;2.45;;;22.90;99.90;;;;;;5031333;28;20032;-41
2023/07/11 01:15:27;;;;;;;3.78;2.72;;;22.80;99.90;;;;;;5031284;28;20029;-41
2023/07/11 01:17:52;;;;;;;4.45;2.88;;;22.80;99.90;;;;;;5031388;28;20033;-40
2023/07/11 01:20:18;;;;;;;2.90;2.50;;;22.80;99.90;;;;;;5013332;28;20041;-40
2023/07/11 01:22:44;;;;;;;3.30;2.40;;;22.80;99.90;;;;;;5031380;28;20074;-39
2023/07/11 01:25:13;;;;;;;3.75;2.90;;;22.80;99.90;;;;;;5031319;28;20140;-38
2023/07/11 01:27:41;;;;;;;3.58;2.88;;;22.80;99.90;;;;;;5030632;28;20430;-38
2023/07/11 01:30:11;;;;;;;3.63;2.47;;;22.80;99.90;;;;;;5030839;28;20101;-39
2023/07/11 01:32:37;;;;;;;3.75;3.00;;;22.80;99.90;;;;;;5031054;28;20026;-41
2023/07/11 01:35:04;;;;;;;3.88;2.72;;;22.80;99.90;;;;;;5031028;28;20030;-39
2023/07/11 01:37:30;;;;;;;4.20;2.70;;;22.80;99.90;;;;;;5031137;28;20065;-43
2023/07/11 01:39:56;;;;;;;3.65;2.67;;;22.80;99.90;;;;;;5030868;28;20507;-39
2023/07/11 01:42:22;;;;;;;3.88;2.90;;;22.80;99.90;;;;;;5031114;28;20108;-41
2023/07/11 01:44:48;;;;;;;5.97;2.80;;;22.80;99.90;;;;;;5030903;28;20362;-40
2023/07/11 01:47:14;;;;;;;4.00;3.03;;;22.80;99.90;;;;;;5031039;28;20108;-42
2023/07/11 01:49:40;;;;;;;3.63;2.58;;;22.80;99.90;;;;;;5030824;28;20425;-41
2023/07/11 01:52:21;;;;;;;5.40;3.00;;;22.80;99.90;;;;;;5030933;28;20462;-40
2023/07/11 01:54:48;;;;;;;3.88;2.53;;;22.80;99.90;;;;;;5031216;28;20400;-40
2023/07/11 01:57:14;;;;;;;3.75;2.83;;;22.80;99.90;;;;;;5030837;28;20596;-40
2023/07/11 01:59:40;;;;;;;2.95;2.28;;;22.80;99.90;;;;;;5030722;28;20029;-40
2023/07/11 02:02:08;;;;;;;3.95;2.83;;;22.80;99.90;;;;;;5030968;28;20080;-40
2023/07/11 02:04:34;;;;;;;5.50;2.78;;;22.80;99.90;;;;;;5030777;28;20362;-41
2023/07/11 02:07:01;;;;;;;2.83;2.40;;;22.80;99.90;;;;;;5031211;28;20060;-40
2023/07/11 02:09:28;;;;;;;3.17;2.60;;;22.80;99.90;;;;;;5030684;28;20030;-38
2023/07/11 02:11:56;;;;;;;4.72;2.75;;;22.80;99.90;;;;;;5030751;28;20120;-39
2023/07/11 02:14:22;;;;;;;3.67;2.70;;;22.80;99.90;;;;;;5030723;28;20025;-39
2023/07/11 02:16:49;;;;;;;3.58;2.83;;;22.80;99.90;;;;;;5030808;28;20076;-38
2023/07/11 02:19:17;;;;;;;4.15;2.80;;;22.80;99.90;;;;;;5030974;28;20037;-40
2023/07/11 02:21:43;;;;;;;5.07;2.75;;;22.80;99.90;;;;;;5030807;28;20025;-40
2023/07/11 02:24:11;;;;;;;3.25;2.72;;;22.80;99.90;;;;;;5030519;28;20029;-40
2023/07/11 02:26:37;;;;;;;3.33;2.53;;;22.80;99.90;;;;;;5030664;28;20064;-40
2023/07/11 02:29:04;;;;;;;3.92;2.95;;;22.80;99.90;;;;;;5030895;28;20053;-43
2023/07/11 02:31:31;;;;;;;4.45;2.58;;;22.80;99.90;;;;;;5030758;28;20032;-41
2023/07/11 02:33:57;;;;;;;3.88;2.38;;;22.70;99.90;;;;;;5030561;28;20021;-40
2023/07/11 02:36:23;;;;;;;2.97;2.67;;;22.80;99.90;;;;;;5030642;28;20071;-39
2023/07/11 02:38:49;;;;;;;2.92;2.53;;;22.70;99.90;;;;;;5032990;28;20104;-40
2023/07/11 02:41:15;;;;;;;4.47;2.70;;;22.80;99.90;;;;;;5034226;28;20026;-39
2023/07/11 02:43:41;;;;;;;4.25;2.47;;;22.80;99.90;;;;;;5034125;28;20036;-42
2023/07/11 02:46:06;;;;;;;4.00;2.38;;;22.70;99.90;;;;;;5034188;28;20529;-42
2023/07/11 02:48:32;;;;;;;5.75;2.95;;;22.70;99.90;;;;;;5034131;28;20025;-41
2023/07/11 02:50:57;;;;;;;4.07;2.60;;;22.70;99.90;;;;;;5033944;28;20108;-39
2023/07/11 02:53:23;;;;;;;3.45;2.53;;;22.70;99.90;;;;;;5033828;28;20078;-40
2023/07/11 02:55:53;;;;;;;3.67;2.83;;;22.70;99.90;;;;;;5033827;28;20060;-39
2023/07/11 02:58:18;;;;;;;5.00;2.85;;;22.70;99.90;;;;;;5033890;28;20021;-39
2023/07/11 03:00:49;;;;;;;4.63;2.60;;;22.70;99.90;;;;;;5033718;28;20096;-39
2023/07/11 03:03:14;;;;;;;3.53;2.70;;;22.70;99.90;;;;;;5033904;28;20029;-38
2023/07/11 03:05:48;;;;;;;3.22;2.63;;;22.70;99.90;;;;;;5033695;28;20060;-40
2023/07/11 03:08:15;;;;;;;2.67;2.42;;;22.70;99.90;;;;;;5033890;28;20036;-39
2023/07/11 03:10:40;;;;;;;3.33;2.55;;;22.70;99.90;;;;;;5033462;28;20091;-40
2023/07/11 03:13:07;;;;;;;3.83;2.90;;;22.70;99.90;;;;;;5033547;28;20030;-42
2023/07/11 03:15:37;;;;;;;3.30;2.70;;;22.70;99.90;;;;;;5033518;28;20467;-40
2023/07/11 03:18:03;;;;;;;7.13;2.70;;;22.70;99.90;;;;;;5033580;28;20028;-42
2023/07/11 03:20:29;;;;;;;3.20;2.33;;;22.70;99.90;;;;;;5033172;28;20120;-39
2023/07/11 03:22:55;;;;;;;3.45;2.90;;;22.70;99.90;;;;;;5033401;28;20132;-40
2023/07/11 03:25:21;;;;;;;3.38;2.50;;;22.70;99.90;;;;;;5033332;28;20037;-42
2023/07/11 03:27:47;;;;;;;3.28;2.90;;;22.70;99.90;;;;;;5033457;28;20040;-39
2023/07/11 03:30:13;;;;;;;3.42;2.70;;;22.70;99.90;;;;;;5033208;28;20100;-38
2023/07/11 03:32:38;;;;;;;3.78;2.63;;;22.60;99.90;;;;;;5015440;28;20057;-37
2023/07/11 03:35:04;;;;;;;3.97;3.08;;;22.70;99.90;;;;;;5033177;28;20041;-40
2023/07/11 03:37:30;;;;;;;3.30;2.40;;;22.70;99.90;;;;;;5033379;28;20021;-40
2023/07/11 03:39:56;;;;;;;3.90;2.78;;;22.60;99.90;;;;;;5032933;28;20021;-40
2023/07/11 03:42:22;;;;;;;7.13;2.53;;;22.70;99.90;;;;;;5033067;28;20029;-39
2023/07/11 03:44:47;;;;;;;6.25;2.67;;;22.70;99.90;;;;;;5032947;28;20036;-39
2023/07/11 03:47:13;;;;;;;3.65;2.80;;;22.60;99.90;;;;;;5033018;28;20033;-41
2023/07/11 03:49:39;;;;;;;2.95;2.50;;;22.70;99.90;;;;;;5031777;28;20068;-38
2023/07/11 03:52:04;;;;;;;3.28;2.67;;;22.70;99.90;;;;;;5032917;28;20032;-40
2023/07/11 03:54:30;;;;;;;3.05;2.60;;;22.70;99.90;;;;;;5032783;28;20022;-40
2023/07/11 03:56:56;;;;;;;4.82;2.53;;;22.70;99.90;;;;;;5032851;28;20026;-38
2023/07/11 03:59:21;;;;;;;4.47;2.80;;;22.70;99.90;;;;;;5032660;28;20413;-39
2023/07/11 04:01:47;;;;;;;4.03;2.90;;;22.70;99.90;;;;;;5032758;28;20104;-41
2023/07/11 04:04:14;;;;;;;3.35;2.42;;;22.70;99.90;;;;;;5032549;28;20033;-39
2023/07/11 04:06:40;;;;;;;3.83;2.70;;;22.70;99.90;;;;;;5032619;28;20040;-40
2023/07/11 04:09:06;;;;;;;3.47;2.70;;;22.70;99.90;;;;;;5032365;28;20037;-39
2023/07/11 04:11:32;;;;;;;2.95;2.47;;;22.70;99.90;;;;;;5032681;28;20033;-41
2023/07/11 04:13:57;;;;;;;3.80;2.70;;;22.60;99.90;;;;;;5032346;28;20029;-39
2023/07/11 04:16:23;;;;;;;3.88;3.00;;;22.60;99.90;;;;;;5014961;28;20037;-40
2023/07/11 04:18:49;;;;;;;3.90;2.65;;;22.70;99.90;;;;;;5032284;28;20083;-40
2023/07/11 04:21:16;;;;;;;5.07;2.85;;;22.60;99.90;;;;;;5032179;28;20037;-41
2023/07/11 04:23:42;;;;;;;3.28;2.83;;;22.60;99.90;;;;;;5032447;28;20080;-41
2023/07/11 04:26:08;;;;;;;3.28;2.70;;;22.60;99.90;;;;;;5032191;28;20509;-40
2023/07/11 04:28:33;;;;;;;5.28;2.90;;;22.60;99.90;;;;;;5032194;28;20400;-41
2023/07/11 04:30:59;;;;;;;3.10;2.70;;;22.60;99.90;;;;;;5031980;28;20045;-39
2023/07/11 04:33:25;;;;;;;2.88;2.40;;;22.60;99.90;;;;;;5031863;28;20034;-41
2023/07/11 04:35:51;;;;;;;3.83;2.72;;;22.60;99.90;;;;;;5032307;28;20028;-41
2023/07/11 04:38:16;;;;;;;4.57;2.55;;;22.60;99.90;;;;;;5031974;28;20469;-39
2023/07/11 04:40:42;;;;;;;3.00;2.30;;;22.60;99.90;;;;;;5031790;28;20049;-41
2023/07/11 04:43:07;;;;;;;3.47;2.78;;;22.60;99.90;;;;;;5032006;28;20109;-38
2023/07/11 04:45:34;;;;;;;4.38;2.65;;;22.60;99.90;;;;;;5031779;28;20187;-41
2023/07/11 04:48:01;;;;;;;3.55;2.63;;;22.60;99.90;;;;;;5031801;28;20091;-39
2023/07/11 04:50:27;;;;;;;5.40;2.65;;;22.60;99.90;;;;;;5031620;28;20519;-42
2023/07/11 04:52:52;;;;;;;3.38;2.65;;;22.60;99.90;;;;;;5031662;28;20030;-40
2023/07/11 04:55:18;;;;;;;3.13;2.80;;;22.60;99.90;;;;;;5031617;28;20028;-43
2023/07/11 04:57:44;;;;;;;3.63;2.75;;;22.60;99.90;;;;;;5031701;28;20018;-41
2023/07/11 05:00:11;;;;;;;6.00;2.92;;;22.60;99.90;;;;;;5031291;28;20051;-40
2023/07/11 05:02:37;;;;;;;3.75;2.85;;;22.60;99.90;;;;;;5031485;28;20053;-39
2023/07/11 05:05:03;;;;;;;4.28;3.00;;;22.60;99.90;;;;;;5031615;28;20084;-37
2023/07/11 05:07:28;;;;;;;3.08;2.78;;;22.60;99.90;;;;;;5031533;28;20439;-38
2023/07/11 05:09:54;;;;;;;4.28;2.63;;;22.60;99.90;;;;;;5031337;28;20083;-39
2023/07/11 05:12:19;;;;;;;2.97;2.58;;;22.60;99.90;;;;;;5031437;28;20021;-39
2023/07/11 05:14:45;;;;;;;5.13;2.80;;;22.60;99.90;;;;;;5031267;28;20033;-40
2023/07/11 05:17:11;;;;;;;3.95;2.78;;;22.60;99.90;;;;;;5031352;28;20080;-39
2023/07/11 05:19:36;;;;;;;3.90;2.53;;;22.60;99.90;;;;;;5031019;28;20492;-40
2023/07/11 05:22:02;;;;;;;4.25;2.75;;;22.60;99.90;;;;;;5031331;28;20485;-40
2023/07/11 05:24:29;;;;;;;2.88;2.55;;;22.60;99.90;;;;;;5031182;28;20061;-39
2023/07/11 05:26:55;;;;;;;3.88;2.70;;;22.60;99.90;;;;;;5031270;28;20097;-40
2023/07/11 05:29:20;;;;;;;4.15;3.00;;;22.60;99.90;;;;;;5031124;28;20060;-41
2023/07/11 05:31:46;;;;;;;4.25;2.63;;;22.60;99.90;;;;;;5031151;28;20028;-40
2023/07/11 05:34:12;;;;;;;6.78;3.10;;;22.60;99.90;;;;;;5031116;28;20033;-38
2023/07/11 05:36:38;;;;;;;3.47;2.75;;;22.60;99.90;;;;;;5031206;28;20068;-38
2023/07/11 05:39:12;;;;;;;5.25;2.58;;;22.60;99.90;;;;;;5031051;28;20108;-40
2023/07/11 05:41:44;;;;;;;4.32;2.90;;;22.60;99.90;;;;;;5031208;28;20071;-38
2023/07/11 05:44:10;;;;;;;4.18;2.67;;;22.60;99.90;;;;;;5031292;28;20116;-40
2023/07/11 05:46:36;;;;;;;4.38;2.92;;;22.60;99.90;;;;;;5031109;28;20029;-38
2023/07/11 05:49:03;;;;;;;3.72;2.60;;;22.60;99.90;;;;;;5031073;28;20033;-41
2023/07/11 05:51:30;;;;;;;3.92;2.85;;;22.60;99.90;;;;;;5031055;28;20025;-40
2023/07/11 05:53:55;;;;;;;4.22;2.97;;;22.60;99.90;;;;;;5030969;28;20105;-41
2023/07/11 05:56:21;;;;;;;8.30;2.78;;;22.60;99.90;;;;;;5031030;28;20541;-41
2023/07/11 05:58:49;;;;;;;3.88;2.63;;;22.60;99.90;;;;;;5030788;28;20022;-41
2023/07/11 06:01:17;;;;;;;4.68;2.53;;;22.60;99.90;;;;;;5030898;28;20033;-39
2023/07/11 06:03:46;;;;;;;7.63;3.10;;;22.60;99.90;;;;;;5030838;28;20385;-41
2023/07/11 06:06:14;;;;;;;3.45;2.53;;;22.60;99.90;;;;;;5030922;28;20036;-40
2023/07/11 06:08:40;;;;;;;3.55;2.42;;;22.60;99.90;;;;;;5030942;28;20028;-40
2023/07/11 06:11:06;;;;;;;5.45;2.72;;;22.60;99.90;;;;;;5030739;28;20029;-40
2023/07/11 06:13:36;;;;;;;3.88;2.83;;;22.60;99.90;;;;;;5033047;28;20105;-39
2023/07/11 06:16:05;;;;;;;5.00;3.00;;;22.60;99.90;;;;;;5034964;28;20404;-40
2023/07/11 06:18:37;;;;;;;3.45;2.58;;;22.60;99.90;;;;;;5034671;28;20028;-38
2023/07/11 06:21:04;;;;;;;3.03;2.67;;;22.60;99.90;;;;;;5034368;28;20033;-38
2023/07/11 06:23:29;;;;;;;4.72;2.80;;;22.60;99.90;;;;;;5034568;28;20076;-39
2023/07/11 06:25:55;;;;;;;3.67;2.85;;;22.60;99.90;;;;;;5034384;28;20029;-41
2023/07/11 06:28:21;;;;;;;4.75;2.95;;;22.60;99.90;;;;;;5034498;28;20443;-40
2023/07/11 06:30:47;;;;;;;3.17;2.53;;;22.60;99.90;;;;;;5034252;28;20080;-40
2023/07/11 06:33:14;;;;;;;3.53;2.70;;;22.60;99.90;;;;;;5034350;28;20113;-41
2023/07/11 06:35:41;;;;;;;3.00;2.50;;;22.60;99.90;;;;;;5034242;28;20388;-40
2023/07/11 06:38:10;;;;;;;3.85;2.97;;;22.60;99.90;;;;;;5034327;28;20484;-40
2023/07/11 06:40:36;;;;;;;5.38;2.80;;;22.60;99.90;;;;;;5033978;28;20029;-40
2023/07/11 06:43:01;;;;;;;3.47;2.60;;;22.60;99.90;;;;;;5034247;28;20454;-39
2023/07/11 06:45:27;;;;;;;3.33;2.63;;;22.60;99.90;;;;;;5034106;28;20037;-41
2023/07/11 06:47:52;;;;;;;3.55;2.97;;;22.60;99.90;;;;;;5034342;28;20166;-39
2023/07/11 06:50:18;;;;;;;3.20;2.28;;;22.60;99.90;;;;;;5033881;28;20022;-41
2023/07/11 06:52:44;;;;;;;2.55;2.10;;;22.60;99.90;;;;;;5034084;28;20113;-41
2023/07/11 06:55:10;;;;;;;3.53;2.50;;;22.60;99.90;;;;;;5033713;28;20025;-40
2023/07/11 06:57:36;;;;;;;4.38;2.63;;;22.60;99.90;;;;;;5033959;28;20433;-40
2023/07/11 07:00:03;;;;;;;2.72;2.50;;;22.60;99.90;;;;;;5033732;28;20496;-40
2023/07/11 07:02:28;;;;;;;3.33;2.30;;;22.60;99.90;;;;;;5033842;28;20030;-40
2023/07/11 07:04:55;;;;;;;2.83;2.40;;;22.60;99.90;;;;;;5033757;28;20037;-40
2023/07/11 07:07:21;;;;;;;5.18;2.72;;;22.60;99.90;;;;;;5033855;28;20037;-40
2023/07/11 07:09:46;;;;;;;2.72;2.35;;;22.60;99.90;;;;;;5033429;28;20029;-40
2023/07/11 07:12:12;;;;;;;3.92;2.58;;;22.60;99.90;;;;;;5033680;28;20061;-40
2023/07/11 07:14:38;;;;;;;2.50;2.17;;;22.60;99.90;;;;;;5033482;28;20076;-38
2023/07/11 07:17:04;;;;;;;2.90;2.60;;;22.60;99.90;;;;;;5033587;28;20021;-39
2023/07/11 07:19:29;;;;;;;3.08;2.65;;;22.60;99.90;;;;;;5033196;28;20033;-39
2023/07/11 07:21:55;;;;;;;2.88;2.30;;;22.60;99.90;;;;;;5033548;28;20555;-41
2023/07/11 07:24:20;;;;;;;4.30;2.67;;;22.60;99.90;;;;;;5031989;28;20022;-40
2023/07/11 07:26:46;;;;;;;3.55;2.53;;;22.60;99.90;;;;;;5033400;28;20036;-38
2023/07/11 07:29:11;;;;;;;3.30;2.60;;;22.60;99.90;;;;;;5033116;28;20034;-40
2023/07/11 07:31:37;;;;;;;4.22;2.47;;;22.60;99.90;;;;;;5033300;28;20025;-41
2023/07/11 07:34:03;;;;;;;3.33;2.60;;;22.70;99.90;;;;;;5033067;28;20596;-41
2023/07/11 07:36:28;;;;;;;3.15;2.35;;;22.60;99.90;;;;;;5033279;28;20071;-40
2023/07/11 07:38:54;;;;;;;3.15;2.60;;;22.70;99.90;;;;;;5032916;28;20027;-40
2023/07/11 07:41:20;;;;;;;2.88;2.13;;;22.70;99.90;;;;;;5033272;28;20053;-40
2023/07/11 07:43:46;;;;;;;2.88;2.33;;;22.70;99.90;;;;;;5033161;28;20397;-39
2023/07/11 07:46:16;;;;;;;3.83;2.70;;;22.70;99.90;;;;;;5033038;28;20021;-41
2023/07/11 07:48:43;;;;;;;3.03;2.45;;;22.60;99.90;;;;;;5026311;28;20046;-41
2023/07/11 07:51:12;;;;;;;3.72;2.50;;;22.70;99.90;;;;;;5013058;28;20393;-40
2023/07/11 07:53:37;;;;;;;3.95;2.60;;;22.60;99.90;;;;;;5012841;28;20395;-39
2023/07/11 07:56:03;;;;;;;2.88;2.20;;;22.60;99.90;;;;;;5013121;28;20029;-39
2023/07/11 07:58:29;;;;;;;3.97;2.50;;;22.60;99.90;;;;;;5013179;28;20426;-40
2023/07/11 08:00:55;;;;;;;2.83;2.38;;;22.70;99.90;;;;;;5012785;28;20048;-40
2023/07/11 08:03:21;;;;;;;3.22;2.40;;;22.70;99.90;;;;;;5012869;28;20046;-40
2023/07/11 08:05:47;;;;;;;3.28;2.63;;;22.60;99.90;;;;;;5012769;28;20037;-40
2023/07/11 08:08:12;;;;;;;4.85;3.15;;;22.70;99.90;;;;;;5012860;28;20080;-41
2023/07/11 08:10:38;;;;;;;8.13;4.15;;;22.70;99.90;;;;;;5012618;28;20438;-44
2023/07/11 08:13:03;;;;;;;5.63;4.13;;;22.70;99.90;;;;;;5013077;28;20022;-38
2023/07/11 08:15:29;;;;;;;5.55;4.13;;;22.70;99.90;;;;;;5012629;28;20429;-40
2023/07/11 08:17:54;;;;;;;5.65;4.18;;;22.70;99.90;;;;;;5012693;28;20552;-39
2023/07/11 08:20:20;;;;;;;7.43;3.88;;;22.70;99.90;;;;;;5012814;28;20037;-38
2023/07/11 08:22:46;;;;;;;4.47;3.65;;;22.70;99.90;;;;;;5012761;28;20126;-39
2023/07/11 08:25:13;;;;;;;5.65;4.30;;;22.70;99.90;;;;;;5012667;28;20033;-38
2023/07/11 08:27:39;;;;;;;4.65;3.70;;;22.70;99.90;;;;;;5012530;28;20022;-40
2023/07/11 08:30:05;;;;;;;4.68;3.47;;;22.70;99.90;;;;;;5012265;28;20041;-43
2023/07/11 08:32:31;;;;;;;5.88;3.75;;;22.70;99.90;;;;;;5013465;28;20025;-40
2023/07/11 08:34:56;;;;;;;4.47;3.30;;;22.70;99.90;;;;;;5011915;28;20076;-40
2023/07/11 08:37:22;;;;;;;6.75;4.38;;;22.70;99.90;;;;;;5012217;28;20033;-41
2023/07/11 08:39:48;;;;;;;5.95;3.55;;;22.70;99.90;;;;;;5012158;28;20493;-41
2023/07/11 08:42:34;;;;;;;7.10;3.85;;;22.70;99.90;;;;;;5012295;28;20022;-40
2023/07/11 08:45:09;;;;;;;6.15;3.92;;;22.70;99.90;;;;;;5012121;28;20022;-40
2023/07/11 08:47:43;;;;;;;5.25;3.70;;;22.70;99.90;;;;;;5012011;28;20538;-39
2023/07/11 08:50:16;;;;;;;4.75;3.70;;;22.70;99.90;;;;;;5011946;28;20030;-40
2023/07/11 08:52:45;;;;;;;4.22;3.40;;;22.70;99.90;;;;;;4991230;28;20037;-41
2023/07/11 08:55:16;;;;;;;6.75;3.83;;;22.70;99.90;;;;;;5009261;28;20057;-40
2023/07/11 08:57:45;;;;;;;5.88;3.70;;;22.70;99.90;;;;;;5012011;28;20093;-42
2023/07/11 09:00:16;;;;;;;7.88;3.88;;;22.70;99.90;;;;;;5011616;28;20026;-39
2023/07/11 09:02:55;;;;;;;5.55;3.38;;;22.80;99.90;;;;;;5011934;28;20014;-41
2023/07/11 09:05:29;;;;;;;4.50;3.38;;;22.70;99.90;;;;;;5011842;28;20084;-40
2023/07/11 09:07:56;;;;;;;4.28;3.42;;;22.70;99.90;;;;;;5011865;28;20393;-40
2023/07/11 09:10:31;;;;;;;5.15;3.70;;;22.70;99.90;;;;;;5011648;28;20389;-40
2023/07/11 09:13:05;;;;;;;4.05;3.60;;;22.70;99.90;;;;;;5012151;28;20084;-39
2023/07/11 09:15:49;;;;;;;4.20;3.28;;;22.80;99.90;;;;;;5011691;28;20037;-39
2023/07/11 09:18:32;;;;;;;5.22;3.47;;;22.80;99.90;;;;;;5011770;28;20030;-39
2023/07/11 09:21:10;;;;;;;6.00;3.80;;;22.80;99.90;;;;;;4993713;28;20037;-39
2023/07/11 09:23:46;;;;;;;4.95;3.30;;;22.80;99.90;;;;;;5011564;28;20084;-38
2023/07/11 09:26:22;;;;;;;5.32;3.47;;;22.80;99.90;;;;;;5011600;28;20517;-40
2023/07/11 09:28:49;;;;;;;6.35;3.38;;;22.80;99.90;;;;;;5011717;28;20052;-40
2023/07/11 09:31:19;;;;;;;4.45;3.67;;;22.80;99.90;;;;;;5011401;28;20089;-41
2023/07/11 09:33:55;;;;;;;4.00;3.10;;;22.80;99.90;;;;;;5011595;28;20053;-40
2023/07/11 09:36:26;;;;;;;5.28;3.63;;;22.80;99.90;;;;;;5011753;28;20030;-40
2023/07/11 09:39:04;;;;;;;5.60;3.17;;;22.80;99.90;;;;;;5011399;28;20105;-40
2023/07/11 09:41:48;;;;;;;4.88;3.63;;;22.80;99.90;;;;;;5011581;28;20281;-39
2023/07/11 09:44:14;;;;;;;5.38;3.47;;;22.80;99.90;;;;;;5011311;28;20080;-39
2023/07/11 09:46:39;;;;;;;5.63;3.03;;;22.80;99.90;;;;;;5011410;28;20034;-40
2023/07/11 09:49:09;;;;;;;3.38;2.90;;;22.80;99.90;;;;;;5014684;28;20026;-39
2023/07/11 09:51:44;;;;;;;5.43;3.88;;;22.80;99.90;;;;;;5015443;28;20448;-40
2023/07/11 09:54:19;;;;;;;5.00;3.38;;;22.80;99.90;;;;;;4997876;28;20440;-40
2023/07/11 09:56:46;;;;;;;4.47;3.35;;;22.80;99.90;;;;;;5015387;28;20358;-40
2023/07/11 09:59:13;;;;;;;3.92;3.22;;;22.80;99.90;;;;;;5015123;28;20073;-40
2023/07/11 10:01:39;;;;;;;5.85;3.22;;;22.80;99.90;;;;;;5015339;28;20022;-40
2023/07/11 10:04:07;;;;;;;4.55;3.35;;;22.80;99.90;;;;;;5015124;28;20029;-40
2023/07/11 10:06:44;;;;;;;3.58;3.20;;;22.80;99.90;;;;;;5015046;28;20033;-39
2023/07/11 10:09:24;;;;;;;4.63;3.20;;;22.80;99.90;;;;;;5014859;28;20429;-42
2023/07/11 10:11:54;;;;;;;4.35;3.33;;;22.90;99.90;;;;;;5015102;28;20025;-39
2023/07/11 10:14:24;;;;;;;4.47;3.20;;;22.90;99.90;;;;;;5014803;28;20110;-40
2023/07/11 10:16:49;;;;;;;6.90;3.30;;;22.90;99.90;;;;;;5014965;28;20391;-41
2023/07/11 10:19:17;;;;;;;4.40;3.40;;;22.90;99.90;;;;;;5014436;28;20030;-39
2023/07/11 10:21:51;;;;;;;4.07;3.13;;;22.90;99.90;;;;;;5014897;28;20018;-41
2023/07/11 10:24:34;;;;;;;3.92;3.10;;;22.90;99.90;;;;;;5014672;28;20068;-39
2023/07/11 10:27:09;;;;;;;10.20;3.13;;;22.90;99.90;;;;;;5014779;28;20127;-40
2023/07/11 10:29:56;;;;;;;4.97;3.25;;;22.90;99.90;;;;;;5014382;28;20272;-39
2023/07/11 10:32:45;;;;;;;3.65;3.05;;;22.90;99.90;;;;;;5014732;28;20064;-39
2023/07/11 10:35:19;;;;;;;4.85;3.30;;;23.00;99.90;;;;;;5014326;28;20084;-39
2023/07/11 10:38:00;;;;;;;4.72;3.35;;;23.00;99.90;;;;;;5014635;28;20034;-40
2023/07/11 10:40:28;;;;;;;4.80;3.53;;;23.00;99.90;;;;;;5014263;28;20026;-40
2023/07/11 10:43:05;;;;;;;4.68;3.63;;;23.00;99.90;;;;;;5014450;28;20393;-40
2023/07/11 10:45:38;;;;;;;4.40;3.53;;;23.00;99.90;;;;;;5014771;28;20032;-38
2023/07/11 10:48:33;;;;;;;5.82;3.63;;;23.00;99.90;;;;;;4997255;28;20482;-40
2023/07/11 10:51:07;;;;;;;4.18;3.40;;;23.00;99.90;;;;;;5014162;28;20385;-41
2023/07/11 10:53:36;;;;;;;4.90;3.30;;;23.00;99.90;;;;;;5014114;28;20494;-42
2023/07/11 10:56:10;;;;;;;5.70;3.70;;;23.00;99.90;;;;;;5014295;28;20097;-40
2023/07/11 10:58:36;;;;;;;4.45;3.30;;;23.00;99.90;;;;;;5014031;28;20109;-41
2023/07/11 11:01:25;;;;;;;5.55;3.75;;;23.00;99.90;;;;;;5014236;28;20549;-39
2023/07/11 11:03:59;;;;;;;5.95;3.53;;;23.10;99.90;;;;;;5014055;28;20057;-41
2023/07/11 11:06:43;;;;;;;3.55;2.70;;;23.10;99.90;;;;;;5014296;28;20029;-40
2023/07/11 11:09:09;;;;;;;4.95;3.58;;;23.00;99.90;;;;;;5013798;28;20069;-40
2023/07/11 11:11:47;;;;;;;4.35;3.05;;;23.10;99.90;;;;;;5013936;28;20030;-40
2023/07/11 11:14:23;;;;;;;4.38;3.45;;;23.10;99.90;;;;;;5013685;28;20022;-40
2023/07/11 11:17:19;;;;;;;4.25;3.28;;;23.10;99.90;;;;;;5014086;28;20018;-40
2023/07/11 11:20:12;;;;;;;4.80;3.40;;;23.10;99.90;;;;;;5013553;28;20504;-40
2023/07/11 11:23:03;;;;;;;4.80;3.50;;;23.10;99.90;;;;;;5013796;28;20022;-41
2023/07/11 11:25:40;;;;;;;4.78;3.53;;;23.10;99.90;;;;;;5013625;28;20101;-39
2023/07/11 11:28:38;;;;;;;4.22;3.13;;;23.10;99.90;;;;;;5013562;28;20032;-38
2023/07/11 11:31:26;;;;;;;5.00;3.40;;;23.10;99.90;;;;;;5000232;28;20038;-39
2023/07/11 11:34:10;;;;;;;4.72;3.53;;;23.10;99.90;;;;;;5013496;28;20033;-40
2023/07/11 11:36:45;;;;;;;6.72;3.58;;;23.10;99.90;;;;;;5013521;28;20021;-40
2023/07/11 11:39:38;;;;;;;7.72;4.20;;;23.20;99.90;;;;;;5013242;28;20033;-39
2023/07/11 11:42:07;;;;;;;9.57;5.25;;;23.20;99.90;;;;;;4963168;28;20041;-39
2023/07/11 11:44:40;;;;;;;9.30;5.72;;;23.40;99.90;;;;;;5013526;28;20038;-41
2023/07/11 11:47:09;;;;;;;8.70;5.75;;;23.30;99.90;;;;;;5013238;28;20125;-39
2023/07/11 11:49:36;;;;;;;7.05;5.35;;;23.40;99.90;;;;;;5013193;28;20030;-43
2023/07/11 11:52:02;;;;;;;7.95;5.40;;;23.40;99.90;;;;;;4995629;28;20076;-39
2023/07/11 11:54:36;;;;;;;9.70;5.57;;;23.30;99.90;;;;;;5012914;28;20034;-39
2023/07/11 11:57:03;;;;;;;9.57;5.68;;;23.30;99.90;;;;;;5013095;28;20028;-43
2023/07/11 11:59:31;;;;;;;8.73;5.35;;;23.30;99.90;;;;;;5012816;28;20033;-39
2023/07/11 12:02:10;;;;;;;6.47;4.93;;;23.30;99.90;;;;;;5012971;28;20053;-40
2023/07/11 12:04:42;;;;;;;8.80;5.55;;;23.30;99.90;;;;;;5012929;28;20084;-39
2023/07/11 12:07:10;;;;;;;8.82;5.40;;;23.30;99.90;;;;;;5012915;28;20065;-41
2023/07/11 12:09:38;;;;;;;8.50;4.95;;;23.30;99.90;;;;;;5012450;28;20041;-38
2023/07/11 12:12:08;;;;;;;9.10;5.05;;;23.30;99.90;;;;;;5012412;28;20111;-39
2023/07/11 12:14:55;;;;;;;9.25;5.13;;;23.30;99.90;;;;;;5012579;28;20026;-40
2023/07/11 12:17:33;;;;;;;9.32;4.95;;;23.30;99.90;;;;;;5012729;28;20053;-40
2023/07/11 12:20:02;;;;;;;9.43;5.25;;;23.40;99.90;;;;;;5012590;28;20374;-39
2023/07/11 12:22:37;;;;;;;9.60;4.70;;;23.40;99.90;;;;;;5013551;28;20104;-43
2023/07/11 12:25:05;;;;;;;7.68;4.82;;;23.40;99.90;;;;;;5012995;28;20153;-38
2023/07/11 12:27:31;;;;;;;7.05;4.93;;;23.40;99.90;;;;;;5012539;28;20026;-41
2023/07/11 12:30:02;;;;;;;6.78;4.55;;;23.40;99.90;;;;;;5012375;28;20677;-38
2023/07/11 12:32:30;;;;;;;8.15;5.15;;;23.40;99.90;;;;;;5012426;28;20104;-43
2023/07/11 12:35:08;;;;;;;7.15;4.93;;;23.40;99.90;;;;;;5013685;28;20422;-40
2023/07/11 12:38:01;;;;;;;8.00;4.88;;;23.40;99.90;;;;;;5012531;28;20026;-40
2023/07/11 12:40:32;;;;;;;7.60;4.63;;;23.40;99.90;;;;;;5012068;28;20490;-43
2023/07/11 12:43:00;;;;;;;7.05;4.78;;;23.40;99.90;;;;;;5012559;28;20072;-41
2023/07/11 12:45:35;;;;;;;7.78;4.78;;;23.30;99.90;;;;;;5012215;28;20033;-39
2023/07/11 12:48:12;;;;;;;6.00;4.40;;;23.40;99.90;;;;;;5012310;28;20041;-37
2023/07/11 12:51:00;;;;;;;5.90;4.15;;;23.40;99.90;;;;;;5012055;28;20161;-38
2023/07/11 12:53:26;;;;;;;6.88;4.45;;;23.40;99.90;;;;;;5011887;28;20041;-40
2023/07/11 12:55:54;;;;;;;5.38;4.25;;;23.40;99.90;;;;;;5012047;28;20026;-39
2023/07/11 12:58:26;;;;;;;6.03;4.32;;;23.40;99.90;;;;;;5012017;28;20026;-40